sensor_id;sensor_type;location;lat;lon;timestamp;P1;durP1;ratioP1;P2;durP2;ratioP2
15412;SDS011;7805;49.554;7.632;2022-10-16T00:00:40;6.67;;;4.30;;
15412;SDS011;7805;49.554;7.632;2022-10-16T00:03:06;6.60;;;3.70;;
15412;SDS011;7805;49.554;7.632;2022-10-16T00:05:33;3.70;;;3.37;;
15412;SDS011;7805;49.554;7.632;2022-10-16T00:08:03;7.30;;;4.00;;
15412;SDS011;7805;49.554;7.632;2022-10-16T00:10:28;4.37;;;4.00;;
15412;SDS011;7805;49.554;7.632;2022-10-16T00:12:54;6.33;;;3.40;;
15412;SDS011;7805;49.554;7.632;2022-10-16T00:15:19;4.10;;;2.33;;
15412;SDS011;7805;49.554;7.632;2022-10-16T00:17:45;3.20;;;2.40;;
15412;SDS011;7805;49.554;7.632;2022-10-16T00:20:10;4.87;;;2.60;;
15412;SDS011;7805;49.554;7.632;2022-10-16T00:22:36;4.30;;;2.87;;
15412;SDS011;7805;49.554;7.632;2022-10-16T00:25:02;4.47;;;2.70;;
15412;SDS011;7805;49.554;7.632;2022-10-16T00:27:27;4.20;;;2.37;;
15412;SDS011;7805;49.554;7.632;2022-10-16T00:29:53;5.50;;;2.10;;
15412;SDS011;7805;49.554;7.632;2022-10-16T00:32:19;5.60;;;2.23;;
15412;SDS011;7805;49.554;7.632;2022-10-16T00:34:45;2.77;;;1.60;;
15412;SDS011;7805;49.554;7.632;2022-10-16T00:37:11;1.97;;;1.50;;
15412;SDS011;7805;49.554;7.632;2022-10-16T00:39:37;2.47;;;1.50;;
15412;SDS011;7805;49.554;7.632;2022-10-16T00:42:03;5.50;;;1.50;;
15412;SDS011;7805;49.554;7.632;2022-10-16T00:44:43;2.20;;;1.30;;
15412;SDS011;7805;49.554;7.632;2022-10-16T00:47:20;2.03;;;1.27;;
15412;SDS011;7805;49.554;7.632;2022-10-16T00:49:48;1.70;;;1.20;;
15412;SDS011;7805;49.554;7.632;2022-10-16T00:52:16;1.50;;;1.07;;
15412;SDS011;7805;49.554;7.632;2022-10-16T00:54:43;1.20;;;1.20;;
15412;SDS011;7805;49.554;7.632;2022-10-16T00:57:10;4.03;;;1.10;;
15412;SDS011;7805;49.554;7.632;2022-10-16T00:59:38;0.80;;;0.80;;
15412;SDS011;7805;49.554;7.632;2022-10-16T01:02:05;4.00;;;1.20;;
15412;SDS011;7805;49.554;7.632;2022-10-16T01:04:35;1.20;;;1.10;;
15412;SDS011;7805;49.554;7.632;2022-10-16T01:09:34;1.20;;;1.10;;
15412;SDS011;7805;49.554;7.632;2022-10-16T01:12:15;0.90;;;0.90;;
15412;SDS011;7805;49.554;7.632;2022-10-16T01:17:23;4.77;;;1.30;;
15412;SDS011;7805;49.554;7.632;2022-10-16T01:20:03;2.90;;;1.00;;
15412;SDS011;7805;49.554;7.632;2022-10-16T01:25:39;2.03;;;0.90;;
15412;SDS011;7805;49.554;7.632;2022-10-16T01:28:33;1.60;;;0.93;;
15412;SDS011;7805;49.554;7.632;2022-10-16T01:31:03;3.03;;;1.10;;
15412;SDS011;7805;49.554;7.632;2022-10-16T01:33:38;2.50;;;1.20;;
15412;SDS011;7805;49.554;7.632;2022-10-16T01:36:11;3.57;;;1.10;;
15412;SDS011;7805;49.554;7.632;2022-10-16T01:38:41;1.27;;;0.90;;
15412;SDS011;7805;49.554;7.632;2022-10-16T01:41:11;1.83;;;1.00;;
15412;SDS011;7805;49.554;7.632;2022-10-16T01:43:42;6.00;;;1.43;;
15412;SDS011;7805;49.554;7.632;2022-10-16T01:46:21;2.00;;;0.90;;
15412;SDS011;7805;49.554;7.632;2022-10-16T01:48:49;1.00;;;0.90;;
15412;SDS011;7805;49.554;7.632;2022-10-16T01:51:17;4.03;;;1.30;;
15412;SDS011;7805;49.554;7.632;2022-10-16T01:53:46;4.87;;;1.27;;
15412;SDS011;7805;49.554;7.632;2022-10-16T01:56:15;7.73;;;2.07;;
15412;SDS011;7805;49.554;7.632;2022-10-16T01:58:45;2.33;;;1.60;;
15412;SDS011;7805;49.554;7.632;2022-10-16T02:01:18;3.90;;;1.60;;
15412;SDS011;7805;49.554;7.632;2022-10-16T02:03:46;4.53;;;1.67;;
15412;SDS011;7805;49.554;7.632;2022-10-16T02:06:14;2.27;;;1.40;;
15412;SDS011;7805;49.554;7.632;2022-10-16T02:08:39;2.93;;;1.40;;
15412;SDS011;7805;49.554;7.632;2022-10-16T02:11:09;3.27;;;1.60;;
15412;SDS011;7805;49.554;7.632;2022-10-16T02:16:01;1.87;;;1.23;;
15412;SDS011;7805;49.554;7.632;2022-10-16T02:18:26;7.00;;;2.10;;
15412;SDS011;7805;49.554;7.632;2022-10-16T02:20:58;3.43;;;1.47;;
15412;SDS011;7805;49.554;7.632;2022-10-16T02:26:12;2.20;;;1.00;;
15412;SDS011;7805;49.554;7.632;2022-10-16T02:28:46;7.40;;;2.10;;
15412;SDS011;7805;49.554;7.632;2022-10-16T02:31:16;5.70;;;1.60;;
15412;SDS011;7805;49.554;7.632;2022-10-16T02:33:48;3.53;;;1.20;;
15412;SDS011;7805;49.554;7.632;2022-10-16T02:36:16;4.50;;;1.67;;
15412;SDS011;7805;49.554;7.632;2022-10-16T02:38:42;3.10;;;1.43;;
15412;SDS011;7805;49.554;7.632;2022-10-16T02:41:07;4.03;;;1.33;;
15412;SDS011;7805;49.554;7.632;2022-10-16T02:43:34;7.97;;;1.80;;
15412;SDS011;7805;49.554;7.632;2022-10-16T02:45:59;1.70;;;1.33;;
15412;SDS011;7805;49.554;7.632;2022-10-16T02:48:25;2.00;;;1.40;;
15412;SDS011;7805;49.554;7.632;2022-10-16T02:50:51;3.37;;;1.50;;
15412;SDS011;7805;49.554;7.632;2022-10-16T02:53:16;8.57;;;1.60;;
15412;SDS011;7805;49.554;7.632;2022-10-16T02:55:42;4.80;;;2.17;;
15412;SDS011;7805;49.554;7.632;2022-10-16T02:58:07;10.57;;;2.80;;
15412;SDS011;7805;49.554;7.632;2022-10-16T03:00:33;3.83;;;1.67;;
15412;SDS011;7805;49.554;7.632;2022-10-16T03:02:59;4.00;;;1.70;;
15412;SDS011;7805;49.554;7.632;2022-10-16T03:05:24;4.60;;;1.53;;
15412;SDS011;7805;49.554;7.632;2022-10-16T03:07:50;5.07;;;1.53;;
15412;SDS011;7805;49.554;7.632;2022-10-16T03:10:17;3.90;;;1.50;;
15412;SDS011;7805;49.554;7.632;2022-10-16T03:12:43;3.47;;;1.20;;
15412;SDS011;7805;49.554;7.632;2022-10-16T03:15:08;4.00;;;1.53;;
15412;SDS011;7805;49.554;7.632;2022-10-16T03:17:34;2.43;;;1.20;;
15412;SDS011;7805;49.554;7.632;2022-10-16T03:19:59;5.27;;;1.40;;
15412;SDS011;7805;49.554;7.632;2022-10-16T03:22:25;4.80;;;1.47;;
15412;SDS011;7805;49.554;7.632;2022-10-16T03:24:51;5.73;;;1.60;;
15412;SDS011;7805;49.554;7.632;2022-10-16T03:27:16;1.73;;;1.50;;
15412;SDS011;7805;49.554;7.632;2022-10-16T03:29:42;4.77;;;2.00;;
15412;SDS011;7805;49.554;7.632;2022-10-16T03:32:07;1.87;;;1.40;;
15412;SDS011;7805;49.554;7.632;2022-10-16T03:34:33;5.87;;;1.33;;
15412;SDS011;7805;49.554;7.632;2022-10-16T03:36:58;4.87;;;1.73;;
15412;SDS011;7805;49.554;7.632;2022-10-16T03:39:24;2.33;;;1.50;;
15412;SDS011;7805;49.554;7.632;2022-10-16T03:41:50;4.67;;;1.53;;
15412;SDS011;7805;49.554;7.632;2022-10-16T03:44:15;8.33;;;1.90;;
15412;SDS011;7805;49.554;7.632;2022-10-16T03:46:41;6.30;;;2.00;;
15412;SDS011;7805;49.554;7.632;2022-10-16T03:49:06;5.00;;;2.33;;
15412;SDS011;7805;49.554;7.632;2022-10-16T03:51:32;3.83;;;2.30;;
15412;SDS011;7805;49.554;7.632;2022-10-16T03:53:58;6.67;;;2.30;;
15412;SDS011;7805;49.554;7.632;2022-10-16T03:56:23;5.30;;;2.27;;
15412;SDS011;7805;49.554;7.632;2022-10-16T03:58:49;2.47;;;2.03;;
15412;SDS011;7805;49.554;7.632;2022-10-16T04:01:14;4.43;;;2.67;;
15412;SDS011;7805;49.554;7.632;2022-10-16T04:03:40;6.20;;;2.20;;
15412;SDS011;7805;49.554;7.632;2022-10-16T04:06:05;5.73;;;2.17;;
15412;SDS011;7805;49.554;7.632;2022-10-16T04:08:31;2.80;;;1.60;;
15412;SDS011;7805;49.554;7.632;2022-10-16T04:10:59;7.60;;;1.87;;
15412;SDS011;7805;49.554;7.632;2022-10-16T04:13:25;1.90;;;1.80;;
15412;SDS011;7805;49.554;7.632;2022-10-16T04:15:51;3.53;;;2.10;;
15412;SDS011;7805;49.554;7.632;2022-10-16T04:18:16;4.67;;;2.10;;
15412;SDS011;7805;49.554;7.632;2022-10-16T04:20:42;7.90;;;2.20;;
15412;SDS011;7805;49.554;7.632;2022-10-16T04:23:08;6.13;;;2.33;;
15412;SDS011;7805;49.554;7.632;2022-10-16T04:25:33;5.13;;;2.43;;
15412;SDS011;7805;49.554;7.632;2022-10-16T04:27:59;7.10;;;2.80;;
15412;SDS011;7805;49.554;7.632;2022-10-16T04:30:24;6.37;;;2.67;;
15412;SDS011;7805;49.554;7.632;2022-10-16T04:32:51;3.57;;;2.37;;
15412;SDS011;7805;49.554;7.632;2022-10-16T04:35:17;6.47;;;2.50;;
15412;SDS011;7805;49.554;7.632;2022-10-16T04:37:44;5.67;;;3.27;;
15412;SDS011;7805;49.554;7.632;2022-10-16T04:40:10;7.93;;;2.40;;
15412;SDS011;7805;49.554;7.632;2022-10-16T04:42:36;5.47;;;3.33;;
15412;SDS011;7805;49.554;7.632;2022-10-16T04:45:02;4.97;;;3.50;;
15412;SDS011;7805;49.554;7.632;2022-10-16T04:47:28;8.03;;;3.43;;
15412;SDS011;7805;49.554;7.632;2022-10-16T04:49:53;7.53;;;2.93;;
15412;SDS011;7805;49.554;7.632;2022-10-16T04:52:19;3.80;;;2.50;;
15412;SDS011;7805;49.554;7.632;2022-10-16T04:54:46;7.57;;;3.80;;
15412;SDS011;7805;49.554;7.632;2022-10-16T04:57:12;5.83;;;3.97;;
15412;SDS011;7805;49.554;7.632;2022-10-16T04:59:37;8.70;;;4.07;;
15412;SDS011;7805;49.554;7.632;2022-10-16T05:02:03;8.13;;;4.10;;
15412;SDS011;7805;49.554;7.632;2022-10-16T05:04:28;4.60;;;3.47;;
15412;SDS011;7805;49.554;7.632;2022-10-16T05:06:54;8.13;;;3.53;;
15412;SDS011;7805;49.554;7.632;2022-10-16T05:09:20;7.37;;;3.70;;
15412;SDS011;7805;49.554;7.632;2022-10-16T05:11:45;4.97;;;3.20;;
15412;SDS011;7805;49.554;7.632;2022-10-16T05:14:11;5.47;;;3.60;;
15412;SDS011;7805;49.554;7.632;2022-10-16T05:16:36;7.27;;;4.07;;
15412;SDS011;7805;49.554;7.632;2022-10-16T05:19:02;4.47;;;4.07;;
15412;SDS011;7805;49.554;7.632;2022-10-16T05:21:27;7.17;;;3.40;;
15412;SDS011;7805;49.554;7.632;2022-10-16T05:23:53;8.40;;;3.50;;
15412;SDS011;7805;49.554;7.632;2022-10-16T05:26:20;7.50;;;3.70;;
15412;SDS011;7805;49.554;7.632;2022-10-16T05:28:45;4.23;;;2.90;;
15412;SDS011;7805;49.554;7.632;2022-10-16T05:31:11;4.60;;;3.10;;
15412;SDS011;7805;49.554;7.632;2022-10-16T05:33:36;4.30;;;2.90;;
15412;SDS011;7805;49.554;7.632;2022-10-16T05:36:06;3.57;;;2.73;;
15412;SDS011;7805;49.554;7.632;2022-10-16T05:38:33;3.90;;;2.80;;
15412;SDS011;7805;49.554;7.632;2022-10-16T05:41:03;3.30;;;2.37;;
15412;SDS011;7805;49.554;7.632;2022-10-16T05:43:30;4.27;;;2.40;;
15412;SDS011;7805;49.554;7.632;2022-10-16T05:46:00;4.30;;;2.00;;
15412;SDS011;7805;49.554;7.632;2022-10-16T05:48:29;4.80;;;2.27;;
15412;SDS011;7805;49.554;7.632;2022-10-16T05:51:05;4.07;;;1.90;;
15412;SDS011;7805;49.554;7.632;2022-10-16T05:53:33;6.13;;;1.80;;
15412;SDS011;7805;49.554;7.632;2022-10-16T05:56:00;2.57;;;1.70;;
15412;SDS011;7805;49.554;7.632;2022-10-16T05:58:31;4.13;;;1.87;;
15412;SDS011;7805;49.554;7.632;2022-10-16T06:00:59;9.90;;;2.40;;
15412;SDS011;7805;49.554;7.632;2022-10-16T06:03:27;9.10;;;2.77;;
15412;SDS011;7805;49.554;7.632;2022-10-16T06:05:53;4.77;;;2.03;;
15412;SDS011;7805;49.554;7.632;2022-10-16T06:08:19;2.93;;;2.73;;
15412;SDS011;7805;49.554;7.632;2022-10-16T06:10:47;7.43;;;3.73;;
15412;SDS011;7805;49.554;7.632;2022-10-16T06:13:13;6.17;;;4.50;;
15412;SDS011;7805;49.554;7.632;2022-10-16T06:15:39;16.63;;;9.43;;
15412;SDS011;7805;49.554;7.632;2022-10-16T06:18:06;18.93;;;8.17;;
15412;SDS011;7805;49.554;7.632;2022-10-16T06:20:33;4.97;;;3.13;;
15412;SDS011;7805;49.554;7.632;2022-10-16T06:22:58;3.23;;;2.13;;
15412;SDS011;7805;49.554;7.632;2022-10-16T06:25:24;2.60;;;2.00;;
15412;SDS011;7805;49.554;7.632;2022-10-16T06:27:49;3.23;;;2.00;;
15412;SDS011;7805;49.554;7.632;2022-10-16T06:30:15;4.30;;;2.60;;
15412;SDS011;7805;49.554;7.632;2022-10-16T06:32:40;2.50;;;1.80;;
15412;SDS011;7805;49.554;7.632;2022-10-16T06:35:06;3.87;;;1.73;;
15412;SDS011;7805;49.554;7.632;2022-10-16T06:37:32;3.73;;;1.80;;
15412;SDS011;7805;49.554;7.632;2022-10-16T06:39:57;6.53;;;1.50;;
15412;SDS011;7805;49.554;7.632;2022-10-16T06:42:23;7.13;;;1.43;;
15412;SDS011;7805;49.554;7.632;2022-10-16T06:44:48;1.73;;;1.40;;
15412;SDS011;7805;49.554;7.632;2022-10-16T06:47:14;4.07;;;1.30;;
15412;SDS011;7805;49.554;7.632;2022-10-16T06:49:39;3.43;;;1.70;;
15412;SDS011;7805;49.554;7.632;2022-10-16T06:52:05;8.20;;;2.10;;
15412;SDS011;7805;49.554;7.632;2022-10-16T06:54:30;8.73;;;3.27;;
15412;SDS011;7805;49.554;7.632;2022-10-16T06:56:56;4.10;;;2.80;;
15412;SDS011;7805;49.554;7.632;2022-10-16T06:59:22;4.10;;;2.80;;
15412;SDS011;7805;49.554;7.632;2022-10-16T07:01:47;6.13;;;3.00;;
15412;SDS011;7805;49.554;7.632;2022-10-16T07:04:13;3.83;;;3.37;;
15412;SDS011;7805;49.554;7.632;2022-10-16T07:06:39;8.60;;;4.30;;
15412;SDS011;7805;49.554;7.632;2022-10-16T07:09:06;6.03;;;4.67;;
15412;SDS011;7805;49.554;7.632;2022-10-16T07:11:33;5.40;;;5.00;;
15412;SDS011;7805;49.554;7.632;2022-10-16T07:13:59;4.27;;;3.97;;
15412;SDS011;7805;49.554;7.632;2022-10-16T07:16:26;3.80;;;3.40;;
15412;SDS011;7805;49.554;7.632;2022-10-16T07:18:53;4.87;;;3.23;;
15412;SDS011;7805;49.554;7.632;2022-10-16T07:21:24;3.73;;;2.97;;
15412;SDS011;7805;49.554;7.632;2022-10-16T07:23:55;12.70;;;8.90;;
15412;SDS011;7805;49.554;7.632;2022-10-16T07:29:07;11.70;;;6.47;;
15412;SDS011;7805;49.554;7.632;2022-10-16T07:31:38;6.07;;;3.97;;
15412;SDS011;7805;49.554;7.632;2022-10-16T07:34:04;8.57;;;3.23;;
15412;SDS011;7805;49.554;7.632;2022-10-16T07:36:30;4.77;;;2.97;;
15412;SDS011;7805;49.554;7.632;2022-10-16T07:38:56;10.93;;;9.53;;
15412;SDS011;7805;49.554;7.632;2022-10-16T07:41:21;8.23;;;6.33;;
15412;SDS011;7805;49.554;7.632;2022-10-16T07:43:47;5.87;;;4.97;;
15412;SDS011;7805;49.554;7.632;2022-10-16T07:46:14;7.33;;;6.00;;
15412;SDS011;7805;49.554;7.632;2022-10-16T07:48:41;8.33;;;5.07;;
15412;SDS011;7805;49.554;7.632;2022-10-16T07:51:10;8.80;;;5.00;;
15412;SDS011;7805;49.554;7.632;2022-10-16T07:53:36;8.27;;;4.00;;
15412;SDS011;7805;49.554;7.632;2022-10-16T07:56:03;7.20;;;4.10;;
15412;SDS011;7805;49.554;7.632;2022-10-16T07:58:30;6.27;;;4.07;;
15412;SDS011;7805;49.554;7.632;2022-10-16T08:00:56;7.33;;;6.70;;
15412;SDS011;7805;49.554;7.632;2022-10-16T08:03:22;7.10;;;6.40;;
15412;SDS011;7805;49.554;7.632;2022-10-16T08:05:49;8.60;;;5.50;;
15412;SDS011;7805;49.554;7.632;2022-10-16T08:08:15;6.50;;;5.20;;
15412;SDS011;7805;49.554;7.632;2022-10-16T08:10:42;7.37;;;5.17;;
15412;SDS011;7805;49.554;7.632;2022-10-16T08:13:08;7.33;;;4.70;;
15412;SDS011;7805;49.554;7.632;2022-10-16T08:15:34;7.30;;;6.60;;
15412;SDS011;7805;49.554;7.632;2022-10-16T08:18:03;6.40;;;5.87;;
15412;SDS011;7805;49.554;7.632;2022-10-16T08:20:30;7.73;;;6.43;;
15412;SDS011;7805;49.554;7.632;2022-10-16T08:22:57;6.70;;;5.80;;
15412;SDS011;7805;49.554;7.632;2022-10-16T08:25:24;4.73;;;4.33;;
15412;SDS011;7805;49.554;7.632;2022-10-16T08:27:50;6.10;;;5.60;;
15412;SDS011;7805;49.554;7.632;2022-10-16T08:30:16;7.20;;;6.50;;
15412;SDS011;7805;49.554;7.632;2022-10-16T08:32:42;7.33;;;5.20;;
15412;SDS011;7805;49.554;7.632;2022-10-16T08:35:08;5.97;;;4.43;;
15412;SDS011;7805;49.554;7.632;2022-10-16T08:37:35;3.63;;;3.27;;
15412;SDS011;7805;49.554;7.632;2022-10-16T08:40:02;4.20;;;3.40;;
15412;SDS011;7805;49.554;7.632;2022-10-16T08:42:32;7.40;;;3.77;;
15412;SDS011;7805;49.554;7.632;2022-10-16T08:45:08;4.63;;;3.90;;
15412;SDS011;7805;49.554;7.632;2022-10-16T08:48:05;3.93;;;3.57;;
15412;SDS011;7805;49.554;7.632;2022-10-16T08:50:48;6.90;;;3.03;;
15412;SDS011;7805;49.554;7.632;2022-10-16T08:53:24;4.27;;;3.97;;
15412;SDS011;7805;49.554;7.632;2022-10-16T08:56:09;2.93;;;2.70;;
15412;SDS011;7805;49.554;7.632;2022-10-16T08:58:35;2.70;;;2.50;;
15412;SDS011;7805;49.554;7.632;2022-10-16T09:01:02;3.40;;;3.10;;
15412;SDS011;7805;49.554;7.632;2022-10-16T09:03:58;3.03;;;2.30;;
15412;SDS011;7805;49.554;7.632;2022-10-16T09:06:32;2.80;;;2.50;;
15412;SDS011;7805;49.554;7.632;2022-10-16T09:11:49;2.10;;;1.90;;
15412;SDS011;7805;49.554;7.632;2022-10-16T09:19:49;3.67;;;1.77;;
15412;SDS011;7805;49.554;7.632;2022-10-16T09:22:19;4.20;;;1.43;;
15412;SDS011;7805;49.554;7.632;2022-10-16T09:24:50;2.87;;;1.60;;
15412;SDS011;7805;49.554;7.632;2022-10-16T09:27:15;2.10;;;1.90;;
15412;SDS011;7805;49.554;7.632;2022-10-16T09:29:41;4.28;;;2.08;;
15412;SDS011;7805;49.554;7.632;2022-10-16T09:32:09;1.80;;;1.70;;
15412;SDS011;7805;49.554;7.632;2022-10-16T09:34:37;2.30;;;2.10;;
15412;SDS011;7805;49.554;7.632;2022-10-16T09:37:12;6.40;;;4.40;;
15412;SDS011;7805;49.554;7.632;2022-10-16T09:39:59;6.80;;;3.20;;
15412;SDS011;7805;49.554;7.632;2022-10-16T09:42:30;3.60;;;2.33;;
15412;SDS011;7805;49.554;7.632;2022-10-16T09:44:59;5.35;;;2.20;;
15412;SDS011;7805;49.554;7.632;2022-10-16T09:47:27;4.93;;;2.38;;
15412;SDS011;7805;49.554;7.632;2022-10-16T09:52:22;5.95;;;2.00;;
15412;SDS011;7805;49.554;7.632;2022-10-16T09:54:50;3.50;;;1.92;;
15412;SDS011;7805;49.554;7.632;2022-10-16T09:57:17;2.95;;;2.25;;
15412;SDS011;7805;49.554;7.632;2022-10-16T09:59:46;3.63;;;2.10;;
15412;SDS011;7805;49.554;7.632;2022-10-16T10:02:17;2.80;;;2.50;;
15412;SDS011;7805;49.554;7.632;2022-10-16T10:04:55;2.65;;;2.30;;
15412;SDS011;7805;49.554;7.632;2022-10-16T10:07:31;2.72;;;2.35;;
15412;SDS011;7805;49.554;7.632;2022-10-16T10:10:01;5.85;;;2.13;;
15412;SDS011;7805;49.554;7.632;2022-10-16T10:12:29;3.72;;;2.38;;
15412;SDS011;7805;49.554;7.632;2022-10-16T10:15:06;3.90;;;3.50;;
15412;SDS011;7805;49.554;7.632;2022-10-16T10:17:46;2.55;;;2.35;;
15412;SDS011;7805;49.554;7.632;2022-10-16T10:20:31;3.17;;;2.38;;
15412;SDS011;7805;49.554;7.632;2022-10-16T10:23:20;2.60;;;2.40;;
15412;SDS011;7805;49.554;7.632;2022-10-16T10:26:00;2.90;;;2.70;;
15412;SDS011;7805;49.554;7.632;2022-10-16T10:31:47;5.15;;;3.95;;
15412;SDS011;7805;49.554;7.632;2022-10-16T10:37:29;5.15;;;2.75;;
15412;SDS011;7805;49.554;7.632;2022-10-16T10:43:13;4.13;;;2.60;;
15412;SDS011;7805;49.554;7.632;2022-10-16T10:45:57;4.28;;;3.30;;
15412;SDS011;7805;49.554;7.632;2022-10-16T10:51:25;7.85;;;3.60;;
15412;SDS011;7805;49.554;7.632;2022-10-16T10:54:20;2.63;;;2.25;;
15412;SDS011;7805;49.554;7.632;2022-10-16T10:56:57;3.25;;;2.88;;
15412;SDS011;7805;49.554;7.632;2022-10-16T11:05:31;3.90;;;3.17;;
15412;SDS011;7805;49.554;7.632;2022-10-16T11:08:20;6.65;;;3.70;;
15412;SDS011;7805;49.554;7.632;2022-10-16T11:16:03;3.85;;;2.70;;
15412;SDS011;7805;49.554;7.632;2022-10-16T11:18:52;5.47;;;2.92;;
15412;SDS011;7805;49.554;7.632;2022-10-16T11:21:36;3.67;;;3.30;;
15412;SDS011;7805;49.554;7.632;2022-10-16T11:27:05;5.10;;;3.00;;
15412;SDS011;7805;49.554;7.632;2022-10-16T11:29:34;4.18;;;3.20;;
15412;SDS011;7805;49.554;7.632;2022-10-16T11:32:07;7.28;;;3.30;;
15412;SDS011;7805;49.554;7.632;2022-10-16T11:34:47;3.53;;;3.15;;
15412;SDS011;7805;49.554;7.632;2022-10-16T11:37:23;6.32;;;3.97;;
15412;SDS011;7805;49.554;7.632;2022-10-16T11:39:58;8.82;;;4.35;;
15412;SDS011;7805;49.554;7.632;2022-10-16T11:42:48;6.93;;;4.50;;
15412;SDS011;7805;49.554;7.632;2022-10-16T11:45:39;5.53;;;3.50;;
15412;SDS011;7805;49.554;7.632;2022-10-16T11:50:51;6.00;;;3.55;;
15412;SDS011;7805;49.554;7.632;2022-10-16T11:56:00;7.22;;;4.85;;
15412;SDS011;7805;49.554;7.632;2022-10-16T11:58:27;5.40;;;4.28;;
15412;SDS011;7805;49.554;7.632;2022-10-16T12:01:04;5.68;;;4.38;;
15412;SDS011;7805;49.554;7.632;2022-10-16T12:06:21;4.93;;;3.42;;
15412;SDS011;7805;49.554;7.632;2022-10-16T12:09:40;4.15;;;3.70;;
15412;SDS011;7805;49.554;7.632;2022-10-16T12:12:01;3.83;;;3.20;;
15412;SDS011;7805;49.554;7.632;2022-10-16T12:19:29;5.07;;;2.35;;
15412;SDS011;7805;49.554;7.632;2022-10-16T12:21:57;3.38;;;2.47;;
15412;SDS011;7805;49.554;7.632;2022-10-16T12:24:34;3.88;;;2.53;;
15412;SDS011;7805;49.554;7.632;2022-10-16T12:27:02;4.10;;;2.55;;
15412;SDS011;7805;49.554;7.632;2022-10-16T12:29:40;4.03;;;2.40;;
15412;SDS011;7805;49.554;7.632;2022-10-16T12:32:24;3.10;;;2.28;;
15412;SDS011;7805;49.554;7.632;2022-10-16T12:34:54;4.70;;;2.92;;
15412;SDS011;7805;49.554;7.632;2022-10-16T12:37:32;2.95;;;1.95;;
15412;SDS011;7805;49.554;7.632;2022-10-16T12:40:04;3.65;;;2.70;;
15412;SDS011;7805;49.554;7.632;2022-10-16T12:42:56;6.45;;;3.88;;
15412;SDS011;7805;49.554;7.632;2022-10-16T12:45:29;3.58;;;2.85;;
15412;SDS011;7805;49.554;7.632;2022-10-16T12:47:56;7.30;;;2.88;;
15412;SDS011;7805;49.554;7.632;2022-10-16T12:53:22;18.38;;;9.57;;
15412;SDS011;7805;49.554;7.632;2022-10-16T13:22:51;3.20;;;2.00;;
15412;SDS011;7805;49.554;7.632;2022-10-16T13:25:27;5.85;;;2.55;;
15412;SDS011;7805;49.554;7.632;2022-10-16T13:28:08;3.15;;;2.95;;
15412;SDS011;7805;49.554;7.632;2022-10-16T13:30:52;5.47;;;2.70;;
15412;SDS011;7805;49.554;7.632;2022-10-16T13:35:52;6.25;;;4.72;;
15412;SDS011;7805;49.554;7.632;2022-10-16T13:38:23;3.70;;;3.03;;
15412;SDS011;7805;49.554;7.632;2022-10-16T13:41:00;4.63;;;2.40;;
15412;SDS011;7805;49.554;7.632;2022-10-16T13:46:17;3.08;;;2.50;;
15412;SDS011;7805;49.554;7.632;2022-10-16T13:48:55;3.03;;;2.38;;
15412;SDS011;7805;49.554;7.632;2022-10-16T13:51:22;4.57;;;2.30;;
15412;SDS011;7805;49.554;7.632;2022-10-16T13:53:47;8.73;;;4.00;;
15412;SDS011;7805;49.554;7.632;2022-10-16T13:56:15;6.70;;;2.90;;
15412;SDS011;7805;49.554;7.632;2022-10-16T13:58:42;5.50;;;3.00;;
15412;SDS011;7805;49.554;7.632;2022-10-16T14:01:22;4.85;;;3.53;;
15412;SDS011;7805;49.554;7.632;2022-10-16T14:03:53;8.32;;;2.75;;
15412;SDS011;7805;49.554;7.632;2022-10-16T14:06:33;5.28;;;2.20;;
15412;SDS011;7805;49.554;7.632;2022-10-16T14:09:09;2.40;;;2.20;;
15412;SDS011;7805;49.554;7.632;2022-10-16T14:11:50;3.33;;;2.60;;
15412;SDS011;7805;49.554;7.632;2022-10-16T14:14:18;4.57;;;2.60;;
15412;SDS011;7805;49.554;7.632;2022-10-16T14:16:44;2.05;;;1.92;;
15412;SDS011;7805;49.554;7.632;2022-10-16T14:19:27;6.85;;;2.47;;
15412;SDS011;7805;49.554;7.632;2022-10-16T14:21:54;5.97;;;1.63;;
15412;SDS011;7805;49.554;7.632;2022-10-16T14:26:56;5.45;;;2.47;;
15412;SDS011;7805;49.554;7.632;2022-10-16T14:29:24;2.85;;;2.55;;
15412;SDS011;7805;49.554;7.632;2022-10-16T14:31:56;3.92;;;2.33;;
15412;SDS011;7805;49.554;7.632;2022-10-16T14:36:56;5.85;;;3.50;;
15412;SDS011;7805;49.554;7.632;2022-10-16T14:39:32;3.75;;;2.72;;
15412;SDS011;7805;49.554;7.632;2022-10-16T14:41:59;2.25;;;2.13;;
15412;SDS011;7805;49.554;7.632;2022-10-16T14:44:27;2.53;;;2.13;;
15412;SDS011;7805;49.554;7.632;2022-10-16T14:46:55;3.60;;;2.28;;
15412;SDS011;7805;49.554;7.632;2022-10-16T14:49:22;8.13;;;2.75;;
15412;SDS011;7805;49.554;7.632;2022-10-16T14:51:49;2.80;;;2.10;;
15412;SDS011;7805;49.554;7.632;2022-10-16T14:54:15;4.30;;;2.38;;
15412;SDS011;7805;49.554;7.632;2022-10-16T14:56:50;2.65;;;2.45;;
15412;SDS011;7805;49.554;7.632;2022-10-16T14:59:34;4.32;;;2.40;;
15412;SDS011;7805;49.554;7.632;2022-10-16T15:04:49;6.15;;;2.58;;
15412;SDS011;7805;49.554;7.632;2022-10-16T15:07:14;3.15;;;2.80;;
15412;SDS011;7805;49.554;7.632;2022-10-16T15:09:40;3.30;;;3.00;;
15412;SDS011;7805;49.554;7.632;2022-10-16T15:12:06;6.95;;;5.07;;
15412;SDS011;7805;49.554;7.632;2022-10-16T15:14:31;3.03;;;2.67;;
15412;SDS011;7805;49.554;7.632;2022-10-16T15:16:57;6.13;;;3.20;;
15412;SDS011;7805;49.554;7.632;2022-10-16T15:19:22;3.80;;;2.80;;
15412;SDS011;7805;49.554;7.632;2022-10-16T15:21:48;3.78;;;2.47;;
15412;SDS011;7805;49.554;7.632;2022-10-16T15:24:14;5.13;;;2.60;;
15412;SDS011;7805;49.554;7.632;2022-10-16T15:26:40;4.00;;;2.28;;
15412;SDS011;7805;49.554;7.632;2022-10-16T15:29:06;6.97;;;2.92;;
15412;SDS011;7805;49.554;7.632;2022-10-16T15:31:33;3.60;;;2.88;;
15412;SDS011;7805;49.554;7.632;2022-10-16T15:33:59;5.10;;;2.40;;
15412;SDS011;7805;49.554;7.632;2022-10-16T15:36:29;9.75;;;6.95;;
15412;SDS011;7805;49.554;7.632;2022-10-16T15:38:59;4.93;;;3.53;;
15412;SDS011;7805;49.554;7.632;2022-10-16T15:41:25;4.68;;;4.03;;
15412;SDS011;7805;49.554;7.632;2022-10-16T15:43:51;4.72;;;4.22;;
15412;SDS011;7805;49.554;7.632;2022-10-16T15:46:20;7.05;;;4.78;;
15412;SDS011;7805;49.554;7.632;2022-10-16T15:48:50;7.75;;;4.68;;
15412;SDS011;7805;49.554;7.632;2022-10-16T15:51:20;5.85;;;3.20;;
15412;SDS011;7805;49.554;7.632;2022-10-16T15:53:46;5.10;;;3.95;;
15412;SDS011;7805;49.554;7.632;2022-10-16T15:56:12;5.07;;;3.58;;
15412;SDS011;7805;49.554;7.632;2022-10-16T15:58:38;8.07;;;4.90;;
15412;SDS011;7805;49.554;7.632;2022-10-16T16:01:04;10.25;;;7.20;;
15412;SDS011;7805;49.554;7.632;2022-10-16T16:03:30;8.32;;;5.75;;
15412;SDS011;7805;49.554;7.632;2022-10-16T16:05:57;4.10;;;3.50;;
15412;SDS011;7805;49.554;7.632;2022-10-16T16:08:23;4.78;;;3.35;;
15412;SDS011;7805;49.554;7.632;2022-10-16T16:11:02;10.57;;;3.70;;
15412;SDS011;7805;49.554;7.632;2022-10-16T16:13:30;8.65;;;3.72;;
15412;SDS011;7805;49.554;7.632;2022-10-16T16:15:56;17.20;;;7.30;;
15412;SDS011;7805;49.554;7.632;2022-10-16T16:18:22;12.13;;;6.53;;
15412;SDS011;7805;49.554;7.632;2022-10-16T16:20:48;13.95;;;8.98;;
15412;SDS011;7805;49.554;7.632;2022-10-16T16:23:15;12.65;;;5.40;;
15412;SDS011;7805;49.554;7.632;2022-10-16T16:25:41;10.90;;;4.13;;
15412;SDS011;7805;49.554;7.632;2022-10-16T16:28:06;13.73;;;4.30;;
15412;SDS011;7805;49.554;7.632;2022-10-16T16:30:32;10.73;;;3.80;;
15412;SDS011;7805;49.554;7.632;2022-10-16T16:32:58;15.30;;;4.00;;
15412;SDS011;7805;49.554;7.632;2022-10-16T16:35:23;8.25;;;3.72;;
15412;SDS011;7805;49.554;7.632;2022-10-16T16:37:49;7.13;;;3.03;;
15412;SDS011;7805;49.554;7.632;2022-10-16T16:40:14;5.85;;;3.15;;
15412;SDS011;7805;49.554;7.632;2022-10-16T16:42:40;8.43;;;3.20;;
15412;SDS011;7805;49.554;7.632;2022-10-16T16:45:06;12.77;;;4.47;;
15412;SDS011;7805;49.554;7.632;2022-10-16T16:47:32;7.70;;;4.30;;
15412;SDS011;7805;49.554;7.632;2022-10-16T16:49:57;9.93;;;4.38;;
15412;SDS011;7805;49.554;7.632;2022-10-16T16:52:23;17.90;;;5.50;;
15412;SDS011;7805;49.554;7.632;2022-10-16T16:54:49;15.00;;;5.17;;
15412;SDS011;7805;49.554;7.632;2022-10-16T16:57:16;9.00;;;4.80;;
15412;SDS011;7805;49.554;7.632;2022-10-16T16:59:43;10.33;;;3.77;;
15412;SDS011;7805;49.554;7.632;2022-10-16T17:02:09;10.47;;;4.20;;